sensor_id;sensor_type;location;lat;lon;timestamp;P1;durP1;ratioP1;P2;durP2;ratioP2
61989;SDS011;54506;43.930;20.410;2022-09-21T00:00:50;6.50;;;2.50;;
61989;SDS011;54506;43.930;20.410;2022-09-21T00:03:15;6.22;;;2.53;;
61989;SDS011;54506;43.930;20.410;2022-09-21T00:05:40;6.07;;;2.50;;
61989;SDS011;54506;43.930;20.410;2022-09-21T00:08:06;5.88;;;2.53;;
61989;SDS011;54506;43.930;20.410;2022-09-21T00:10:32;5.80;;;2.53;;
61989;SDS011;54506;43.930;20.410;2022-09-21T00:12:58;7.55;;;2.90;;
61989;SDS011;54506;43.930;20.410;2022-09-21T00:15:24;7.05;;;3.20;;
61989;SDS011;54506;43.930;20.410;2022-09-21T00:17:53;7.43;;;2.97;;
61989;SDS011;54506;43.930;20.410;2022-09-21T00:20:19;6.38;;;3.15;;
61989;SDS011;54506;43.930;20.410;2022-09-21T00:22:46;8.82;;;3.50;;
61989;SDS011;54506;43.930;20.410;2022-09-21T00:25:11;6.00;;;2.58;;
61989;SDS011;54506;43.930;20.410;2022-09-21T00:27:37;6.57;;;2.72;;
61989;SDS011;54506;43.930;20.410;2022-09-21T00:30:03;5.63;;;2.60;;
61989;SDS011;54506;43.930;20.410;2022-09-21T00:32:29;5.72;;;2.63;;
61989;SDS011;54506;43.930;20.410;2022-09-21T00:34:58;5.70;;;2.38;;
61989;SDS011;54506;43.930;20.410;2022-09-21T00:37:24;7.88;;;2.55;;
61989;SDS011;54506;43.930;20.410;2022-09-21T00:39:50;6.55;;;2.70;;
61989;SDS011;54506;43.930;20.410;2022-09-21T00:42:16;6.60;;;2.70;;
61989;SDS011;54506;43.930;20.410;2022-09-21T00:44:42;8.05;;;2.80;;
61989;SDS011;54506;43.930;20.410;2022-09-21T00:47:12;8.13;;;2.92;;
61989;SDS011;54506;43.930;20.410;2022-09-21T00:49:39;6.50;;;2.60;;
61989;SDS011;54506;43.930;20.410;2022-09-21T00:52:05;6.38;;;2.60;;
61989;SDS011;54506;43.930;20.410;2022-09-21T00:54:36;6.07;;;2.33;;
61989;SDS011;54506;43.930;20.410;2022-09-21T00:57:02;7.63;;;2.70;;
61989;SDS011;54506;43.930;20.410;2022-09-21T00:59:31;6.10;;;2.50;;
61989;SDS011;54506;43.930;20.410;2022-09-21T01:01:58;6.47;;;2.30;;
61989;SDS011;54506;43.930;20.410;2022-09-21T01:04:23;7.07;;;2.60;;
61989;SDS011;54506;43.930;20.410;2022-09-21T01:06:50;7.95;;;2.70;;
61989;SDS011;54506;43.930;20.410;2022-09-21T01:09:16;6.07;;;2.20;;
61989;SDS011;54506;43.930;20.410;2022-09-21T01:32:11;5.97;;;2.58;;
61989;SDS011;54506;43.930;20.410;2022-09-21T01:34:50;6.30;;;2.60;;
61989;SDS011;54506;43.930;20.410;2022-09-21T01:37:18;6.63;;;2.88;;
61989;SDS011;54506;43.930;20.410;2022-09-21T01:39:46;7.65;;;3.22;;
61989;SDS011;54506;43.930;20.410;2022-09-21T01:42:13;7.32;;;3.25;;
61989;SDS011;54506;43.930;20.410;2022-09-21T01:44:39;7.20;;;3.13;;
61989;SDS011;54506;43.930;20.410;2022-09-21T01:47:08;8.13;;;3.25;;
61989;SDS011;54506;43.930;20.410;2022-09-21T01:49:37;10.27;;;5.60;;
61989;SDS011;54506;43.930;20.410;2022-09-21T01:52:09;12.98;;;8.00;;
61989;SDS011;54506;43.930;20.410;2022-09-21T01:54:46;12.00;;;7.65;;
61989;SDS011;54506;43.930;20.410;2022-09-21T01:57:29;10.75;;;5.38;;
61989;SDS011;54506;43.930;20.410;2022-09-21T01:59:59;10.57;;;4.57;;
61989;SDS011;54506;43.930;20.410;2022-09-21T02:02:45;9.23;;;4.47;;
61989;SDS011;54506;43.930;20.410;2022-09-21T02:05:12;8.10;;;3.25;;
61989;SDS011;54506;43.930;20.410;2022-09-21T02:07:40;7.53;;;3.40;;
61989;SDS011;54506;43.930;20.410;2022-09-21T02:10:06;7.90;;;3.47;;
61989;SDS011;54506;43.930;20.410;2022-09-21T02:12:32;6.22;;;2.97;;
61989;SDS011;54506;43.930;20.410;2022-09-21T02:14:58;7.90;;;3.03;;
61989;SDS011;54506;43.930;20.410;2022-09-21T02:18:09;7.22;;;3.30;;
61989;SDS011;54506;43.930;20.410;2022-09-21T02:25:19;6.95;;;3.20;;
61989;SDS011;54506;43.930;20.410;2022-09-21T02:27:55;6.82;;;2.92;;
61989;SDS011;54506;43.930;20.410;2022-09-21T02:30:23;7.47;;;3.00;;
61989;SDS011;54506;43.930;20.410;2022-09-21T02:32:58;7.43;;;3.10;;
61989;SDS011;54506;43.930;20.410;2022-09-21T02:38:08;7.28;;;2.80;;
61989;SDS011;54506;43.930;20.410;2022-09-21T02:40:42;7.63;;;3.03;;
61989;SDS011;54506;43.930;20.410;2022-09-21T02:43:24;7.25;;;3.30;;
61989;SDS011;54506;43.930;20.410;2022-09-21T02:45:58;7.38;;;3.40;;
61989;SDS011;54506;43.930;20.410;2022-09-21T02:48:27;7.68;;;3.22;;
61989;SDS011;54506;43.930;20.410;2022-09-21T02:50:55;7.57;;;3.00;;
61989;SDS011;54506;43.930;20.410;2022-09-21T02:53:25;6.18;;;2.65;;
61989;SDS011;54506;43.930;20.410;2022-09-21T02:55:52;6.50;;;2.80;;
61989;SDS011;54506;43.930;20.410;2022-09-21T02:58:19;6.70;;;2.60;;
61989;SDS011;54506;43.930;20.410;2022-09-21T03:00:45;5.97;;;2.67;;
61989;SDS011;54506;43.930;20.410;2022-09-21T03:03:17;7.05;;;2.80;;
61989;SDS011;54506;43.930;20.410;2022-09-21T03:05:44;6.47;;;2.70;;
61989;SDS011;54506;43.930;20.410;2022-09-21T03:08:09;7.30;;;2.97;;
61989;SDS011;54506;43.930;20.410;2022-09-21T03:10:35;8.07;;;3.00;;
61989;SDS011;54506;43.930;20.410;2022-09-21T03:13:05;7.45;;;2.80;;
61989;SDS011;54506;43.930;20.410;2022-09-21T03:15:33;6.88;;;3.00;;
61989;SDS011;54506;43.930;20.410;2022-09-21T03:17:58;8.05;;;3.15;;
61989;SDS011;54506;43.930;20.410;2022-09-21T03:20:24;6.55;;;3.10;;
61989;SDS011;54506;43.930;20.410;2022-09-21T03:22:49;6.93;;;2.92;;
61989;SDS011;54506;43.930;20.410;2022-09-21T03:25:15;6.95;;;3.00;;
61989;SDS011;54506;43.930;20.410;2022-09-21T03:27:40;7.93;;;3.22;;
61989;SDS011;54506;43.930;20.410;2022-09-21T03:30:07;6.22;;;2.90;;
61989;SDS011;54506;43.930;20.410;2022-09-21T03:32:32;6.05;;;2.97;;
61989;SDS011;54506;43.930;20.410;2022-09-21T03:34:58;6.57;;;3.10;;
61989;SDS011;54506;43.930;20.410;2022-09-21T03:37:23;6.85;;;2.90;;
61989;SDS011;54506;43.930;20.410;2022-09-21T03:39:49;6.80;;;2.92;;
61989;SDS011;54506;43.930;20.410;2022-09-21T03:42:14;5.80;;;2.60;;
61989;SDS011;54506;43.930;20.410;2022-09-21T03:44:39;5.70;;;2.40;;
61989;SDS011;54506;43.930;20.410;2022-09-21T03:47:05;4.97;;;2.28;;
61989;SDS011;54506;43.930;20.410;2022-09-21T03:49:31;5.68;;;2.42;;
61989;SDS011;54506;43.930;20.410;2022-09-21T03:51:56;5.05;;;2.40;;
61989;SDS011;54506;43.930;20.410;2022-09-21T03:54:23;6.30;;;2.97;;
61989;SDS011;54506;43.930;20.410;2022-09-21T03:56:49;12.15;;;3.78;;
61989;SDS011;54506;43.930;20.410;2022-09-21T03:59:15;8.10;;;3.80;;
61989;SDS011;54506;43.930;20.410;2022-09-21T04:01:41;8.18;;;3.70;;
61989;SDS011;54506;43.930;20.410;2022-09-21T04:04:06;8.30;;;3.60;;
61989;SDS011;54506;43.930;20.410;2022-09-21T04:06:31;6.85;;;3.00;;
61989;SDS011;54506;43.930;20.410;2022-09-21T04:08:58;7.03;;;2.83;;
61989;SDS011;54506;43.930;20.410;2022-09-21T04:11:24;7.65;;;2.60;;
61989;SDS011;54506;43.930;20.410;2022-09-21T04:13:50;7.40;;;2.95;;
61989;SDS011;54506;43.930;20.410;2022-09-21T04:16:21;6.50;;;2.88;;
61989;SDS011;54506;43.930;20.410;2022-09-21T04:18:46;8.15;;;3.53;;
61989;SDS011;54506;43.930;20.410;2022-09-21T04:21:15;8.57;;;3.97;;
61989;SDS011;54506;43.930;20.410;2022-09-21T04:23:40;8.95;;;4.43;;
61989;SDS011;54506;43.930;20.410;2022-09-21T04:26:05;10.13;;;5.18;;
61989;SDS011;54506;43.930;20.410;2022-09-21T04:28:31;11.27;;;5.00;;
61989;SDS011;54506;43.930;20.410;2022-09-21T04:30:56;8.27;;;4.53;;
61989;SDS011;54506;43.930;20.410;2022-09-21T04:33:22;8.52;;;4.30;;
61989;SDS011;54506;43.930;20.410;2022-09-21T04:35:53;7.95;;;3.50;;
61989;SDS011;54506;43.930;20.410;2022-09-21T04:38:18;6.72;;;3.25;;
61989;SDS011;54506;43.930;20.410;2022-09-21T04:40:44;7.90;;;3.65;;
61989;SDS011;54506;43.930;20.410;2022-09-21T04:43:18;7.88;;;4.15;;
61989;SDS011;54506;43.930;20.410;2022-09-21T04:45:44;11.25;;;5.20;;
61989;SDS011;54506;43.930;20.410;2022-09-21T04:48:13;11.68;;;5.75;;
61989;SDS011;54506;43.930;20.410;2022-09-21T04:50:38;8.27;;;3.60;;
61989;SDS011;54506;43.930;20.410;2022-09-21T04:53:04;6.78;;;3.20;;
61989;SDS011;54506;43.930;20.410;2022-09-21T04:55:30;7.38;;;3.05;;
61989;SDS011;54506;43.930;20.410;2022-09-21T04:57:55;5.97;;;2.78;;
61989;SDS011;54506;43.930;20.410;2022-09-21T05:00:20;6.97;;;3.05;;
61989;SDS011;54506;43.930;20.410;2022-09-21T05:02:46;7.20;;;3.08;;
61989;SDS011;54506;43.930;20.410;2022-09-21T05:05:12;6.05;;;3.08;;
61989;SDS011;54506;43.930;20.410;2022-09-21T05:07:37;6.20;;;3.15;;
61989;SDS011;54506;43.930;20.410;2022-09-21T05:10:03;7.32;;;3.50;;
61989;SDS011;54506;43.930;20.410;2022-09-21T05:12:29;7.88;;;3.70;;
61989;SDS011;54506;43.930;20.410;2022-09-21T05:14:54;7.68;;;3.60;;
61989;SDS011;54506;43.930;20.410;2022-09-21T05:17:20;8.35;;;4.20;;
61989;SDS011;54506;43.930;20.410;2022-09-21T05:19:50;7.63;;;3.50;;
61989;SDS011;54506;43.930;20.410;2022-09-21T05:22:15;8.00;;;3.17;;
61989;SDS011;54506;43.930;20.410;2022-09-21T05:24:41;6.72;;;2.95;;
61989;SDS011;54506;43.930;20.410;2022-09-21T05:27:06;6.47;;;2.70;;
61989;SDS011;54506;43.930;20.410;2022-09-21T05:29:33;6.80;;;2.95;;
61989;SDS011;54506;43.930;20.410;2022-09-21T05:32:00;6.05;;;2.78;;
61989;SDS011;54506;43.930;20.410;2022-09-21T05:37:22;5.90;;;2.55;;
61989;SDS011;54506;43.930;20.410;2022-09-21T05:39:56;6.07;;;2.60;;
61989;SDS011;54506;43.930;20.410;2022-09-21T05:42:22;5.57;;;2.40;;
61989;SDS011;54506;43.930;20.410;2022-09-21T05:44:47;5.53;;;2.47;;
61989;SDS011;54506;43.930;20.410;2022-09-21T05:52:23;5.22;;;2.53;;
61989;SDS011;54506;43.930;20.410;2022-09-21T05:57:22;7.03;;;2.80;;
61989;SDS011;54506;43.930;20.410;2022-09-21T06:00:05;5.38;;;2.50;;
61989;SDS011;54506;43.930;20.410;2022-09-21T06:05:12;7.60;;;2.95;;
61989;SDS011;54506;43.930;20.410;2022-09-21T06:07:38;6.32;;;2.60;;
61989;SDS011;54506;43.930;20.410;2022-09-21T06:10:03;5.75;;;2.30;;
61989;SDS011;54506;43.930;20.410;2022-09-21T06:12:29;5.40;;;2.50;;
61989;SDS011;54506;43.930;20.410;2022-09-21T06:14:54;6.22;;;2.72;;
61989;SDS011;54506;43.930;20.410;2022-09-21T06:17:20;7.00;;;3.30;;
61989;SDS011;54506;43.930;20.410;2022-09-21T06:19:46;7.00;;;3.42;;
61989;SDS011;54506;43.930;20.410;2022-09-21T06:22:11;8.02;;;3.80;;
61989;SDS011;54506;43.930;20.410;2022-09-21T06:24:37;8.27;;;3.60;;
61989;SDS011;54506;43.930;20.410;2022-09-21T06:27:02;6.05;;;3.30;;
61989;SDS011;54506;43.930;20.410;2022-09-21T06:29:28;6.00;;;3.15;;
61989;SDS011;54506;43.930;20.410;2022-09-21T06:31:53;5.32;;;3.10;;
61989;SDS011;54506;43.930;20.410;2022-09-21T06:34:19;6.63;;;3.40;;
61989;SDS011;54506;43.930;20.410;2022-09-21T06:36:44;5.85;;;3.05;;
61989;SDS011;54506;43.930;20.410;2022-09-21T06:39:10;5.57;;;2.92;;
61989;SDS011;54506;43.930;20.410;2022-09-21T06:41:35;5.50;;;2.67;;
61989;SDS011;54506;43.930;20.410;2022-09-21T06:44:01;5.63;;;3.05;;
61989;SDS011;54506;43.930;20.410;2022-09-21T06:46:26;6.05;;;3.28;;
61989;SDS011;54506;43.930;20.410;2022-09-21T06:48:52;6.60;;;3.40;;
61989;SDS011;54506;43.930;20.410;2022-09-21T06:51:18;5.45;;;3.03;;
61989;SDS011;54506;43.930;20.410;2022-09-21T06:53:45;5.07;;;2.80;;
61989;SDS011;54506;43.930;20.410;2022-09-21T06:56:11;5.70;;;2.80;;
61989;SDS011;54506;43.930;20.410;2022-09-21T06:58:37;4.63;;;2.20;;
61989;SDS011;54506;43.930;20.410;2022-09-21T07:01:11;5.30;;;2.10;;
61989;SDS011;54506;43.930;20.410;2022-09-21T07:03:37;4.07;;;1.80;;
61989;SDS011;54506;43.930;20.410;2022-09-21T07:06:03;4.20;;;1.80;;
61989;SDS011;54506;43.930;20.410;2022-09-21T07:08:29;4.40;;;2.00;;
61989;SDS011;54506;43.930;20.410;2022-09-21T07:10:57;3.88;;;1.70;;
61989;SDS011;54506;43.930;20.410;2022-09-21T07:13:23;3.63;;;1.50;;
61989;SDS011;54506;43.930;20.410;2022-09-21T07:15:48;4.35;;;1.67;;
61989;SDS011;54506;43.930;20.410;2022-09-21T07:18:14;3.85;;;1.67;;
61989;SDS011;54506;43.930;20.410;2022-09-21T07:20:39;3.80;;;1.70;;
61989;SDS011;54506;43.930;20.410;2022-09-21T07:23:09;4.25;;;1.77;;
61989;SDS011;54506;43.930;20.410;2022-09-21T07:25:35;5.22;;;1.80;;
61989;SDS011;54506;43.930;20.410;2022-09-21T07:28:01;5.18;;;1.75;;
61989;SDS011;54506;43.930;20.410;2022-09-21T07:30:26;3.70;;;1.52;;
61989;SDS011;54506;43.930;20.410;2022-09-21T07:32:51;4.57;;;1.88;;
61989;SDS011;54506;43.930;20.410;2022-09-21T07:35:17;3.63;;;1.60;;
61989;SDS011;54506;43.930;20.410;2022-09-21T07:37:43;4.15;;;1.85;;
61989;SDS011;54506;43.930;20.410;2022-09-21T07:40:09;4.25;;;1.60;;
61989;SDS011;54506;43.930;20.410;2022-09-21T07:42:34;3.95;;;1.60;;
61989;SDS011;54506;43.930;20.410;2022-09-21T07:45:00;3.90;;;1.70;;
61989;SDS011;54506;43.930;20.410;2022-09-21T07:47:25;3.78;;;1.67;;
61989;SDS011;54506;43.930;20.410;2022-09-21T07:49:52;5.30;;;1.77;;
61989;SDS011;54506;43.930;20.410;2022-09-21T07:52:17;4.25;;;1.60;;
61989;SDS011;54506;43.930;20.410;2022-09-21T07:54:43;4.00;;;1.65;;
61989;SDS011;54506;43.930;20.410;2022-09-21T07:57:09;3.80;;;1.70;;
61989;SDS011;54506;43.930;20.410;2022-09-21T07:59:53;3.88;;;1.50;;
61989;SDS011;54506;43.930;20.410;2022-09-21T08:02:22;3.80;;;1.60;;
61989;SDS011;54506;43.930;20.410;2022-09-21T08:04:48;3.67;;;1.52;;
61989;SDS011;54506;43.930;20.410;2022-09-21T08:07:13;4.03;;;1.50;;
61989;SDS011;54506;43.930;20.410;2022-09-21T08:09:39;4.20;;;1.70;;
61989;SDS011;54506;43.930;20.410;2022-09-21T08:12:06;3.90;;;1.60;;
61989;SDS011;54506;43.930;20.410;2022-09-21T08:14:31;4.40;;;1.60;;
61989;SDS011;54506;43.930;20.410;2022-09-21T08:16:57;4.00;;;1.60;;
61989;SDS011;54506;43.930;20.410;2022-09-21T08:19:23;3.95;;;1.52;;
61989;SDS011;54506;43.930;20.410;2022-09-21T08:21:50;4.10;;;1.50;;
61989;SDS011;54506;43.930;20.410;2022-09-21T08:24:16;3.80;;;1.60;;
61989;SDS011;54506;43.930;20.410;2022-09-21T08:26:41;4.25;;;1.80;;
61989;SDS011;54506;43.930;20.410;2022-09-21T08:29:08;4.05;;;1.60;;
61989;SDS011;54506;43.930;20.410;2022-09-21T08:31:33;4.47;;;1.70;;
61989;SDS011;54506;43.930;20.410;2022-09-21T08:33:59;4.60;;;1.70;;
61989;SDS011;54506;43.930;20.410;2022-09-21T08:36:25;4.07;;;1.60;;
61989;SDS011;54506;43.930;20.410;2022-09-21T08:38:50;3.65;;;1.60;;
61989;SDS011;54506;43.930;20.410;2022-09-21T08:43:48;4.20;;;1.52;;
61989;SDS011;54506;43.930;20.410;2022-09-21T08:46:18;3.88;;;1.77;;
61989;SDS011;54506;43.930;20.410;2022-09-21T08:48:53;3.85;;;1.70;;
61989;SDS011;54506;43.930;20.410;2022-09-21T08:51:20;3.90;;;1.63;;
61989;SDS011;54506;43.930;20.410;2022-09-21T08:53:48;3.92;;;1.80;;
61989;SDS011;54506;43.930;20.410;2022-09-21T08:56:14;3.92;;;1.70;;
61989;SDS011;54506;43.930;20.410;2022-09-21T08:58:40;4.65;;;1.83;;
61989;SDS011;54506;43.930;20.410;2022-09-21T09:07:23;5.30;;;2.22;;
61989;SDS011;54506;43.930;20.410;2022-09-21T09:12:00;4.85;;;2.28;;
61989;SDS011;54506;43.930;20.410;2022-09-21T09:19:49;5.38;;;2.80;;
61989;SDS011;54506;43.930;20.410;2022-09-21T09:22:17;5.40;;;2.70;;
61989;SDS011;54506;43.930;20.410;2022-09-21T09:24:48;5.00;;;2.60;;
61989;SDS011;54506;43.930;20.410;2022-09-21T09:32:13;5.60;;;2.95;;
61989;SDS011;54506;43.930;20.410;2022-09-21T09:34:39;5.28;;;2.90;;
61989;SDS011;54506;43.930;20.410;2022-09-21T09:37:16;5.60;;;3.00;;
61989;SDS011;54506;43.930;20.410;2022-09-21T09:39:42;6.25;;;3.13;;
61989;SDS011;54506;43.930;20.410;2022-09-21T09:42:29;5.60;;;3.10;;
61989;SDS011;54506;43.930;20.410;2022-09-21T09:52:25;5.82;;;3.33;;
61989;SDS011;54506;43.930;20.410;2022-09-21T09:54:50;5.97;;;3.33;;
61989;SDS011;54506;43.930;20.410;2022-09-21T09:57:19;5.80;;;3.28;;
61989;SDS011;54506;43.930;20.410;2022-09-21T09:59:50;5.68;;;3.17;;
61989;SDS011;54506;43.930;20.410;2022-09-21T10:02:21;6.10;;;3.30;;
61989;SDS011;54506;43.930;20.410;2022-09-21T10:04:54;7.15;;;3.53;;
61989;SDS011;54506;43.930;20.410;2022-09-21T10:07:19;6.03;;;2.95;;
61989;SDS011;54506;43.930;20.410;2022-09-21T10:10:20;5.55;;;2.90;;
61989;SDS011;54506;43.930;20.410;2022-09-21T10:12:48;6.35;;;2.85;;
61989;SDS011;54506;43.930;20.410;2022-09-21T10:15:15;5.22;;;2.72;;
61989;SDS011;54506;43.930;20.410;2022-09-21T10:17:41;6.05;;;2.70;;
61989;SDS011;54506;43.930;20.410;2022-09-21T10:20:13;5.72;;;2.85;;
61989;SDS011;54506;43.930;20.410;2022-09-21T10:22:40;5.35;;;2.67;;
61989;SDS011;54506;43.930;20.410;2022-09-21T10:25:13;4.97;;;2.80;;
61989;SDS011;54506;43.930;20.410;2022-09-21T10:27:41;5.22;;;2.53;;
61989;SDS011;54506;43.930;20.410;2022-09-21T10:30:13;6.35;;;2.60;;
61989;SDS011;54506;43.930;20.410;2022-09-21T10:32:53;4.70;;;2.60;;
61989;SDS011;54506;43.930;20.410;2022-09-21T10:35:19;5.18;;;2.40;;
61989;SDS011;54506;43.930;20.410;2022-09-21T10:37:45;5.70;;;2.95;;
61989;SDS011;54506;43.930;20.410;2022-09-21T10:42:50;5.00;;;2.70;;
61989;SDS011;54506;43.930;20.410;2022-09-21T10:45:17;4.63;;;2.60;;
61989;SDS011;54506;43.930;20.410;2022-09-21T10:47:47;4.60;;;2.60;;
61989;SDS011;54506;43.930;20.410;2022-09-21T10:52:47;5.53;;;2.90;;
61989;SDS011;54506;43.930;20.410;2022-09-21T10:55:17;5.97;;;3.50;;
61989;SDS011;54506;43.930;20.410;2022-09-21T10:57:43;5.50;;;3.22;;
61989;SDS011;54506;43.930;20.410;2022-09-21T11:02:53;5.30;;;3.03;;
61989;SDS011;54506;43.930;20.410;2022-09-21T11:05:24;6.63;;;3.50;;
61989;SDS011;54506;43.930;20.410;2022-09-21T11:10:18;6.05;;;3.13;;
61989;SDS011;54506;43.930;20.410;2022-09-21T11:15:31;4.90;;;2.50;;
61989;SDS011;54506;43.930;20.410;2022-09-21T11:20:49;5.05;;;2.78;;
61989;SDS011;54506;43.930;20.410;2022-09-21T11:23:20;4.70;;;2.40;;
61989;SDS011;54506;43.930;20.410;2022-09-21T11:28:38;5.53;;;2.20;;
61989;SDS011;54506;43.930;20.410;2022-09-21T11:38:38;3.95;;;1.95;;
61989;SDS011;54506;43.930;20.410;2022-09-21T11:46:13;4.55;;;1.98;;
61989;SDS011;54506;43.930;20.410;2022-09-21T11:56:38;4.50;;;2.40;;
61989;SDS011;54506;43.930;20.410;2022-09-21T12:19:33;5.05;;;2.60;;
61989;SDS011;54506;43.930;20.410;2022-09-21T12:22:05;5.35;;;2.50;;
61989;SDS011;54506;43.930;20.410;2022-09-21T12:24:38;9.63;;;2.38;;
61989;SDS011;54506;43.930;20.410;2022-09-21T12:27:22;5.25;;;2.33;;
61989;SDS011;54506;43.930;20.410;2022-09-21T12:29:51;4.65;;;2.00;;
61989;SDS011;54506;43.930;20.410;2022-09-21T12:32:25;4.40;;;2.05;;
61989;SDS011;54506;43.930;20.410;2022-09-21T12:34:53;4.95;;;2.03;;
61989;SDS011;54506;43.930;20.410;2022-09-21T12:37:30;5.13;;;2.22;;
61989;SDS011;54506;43.930;20.410;2022-09-21T12:44:55;5.20;;;2.33;;
61989;SDS011;54506;43.930;20.410;2022-09-21T12:49:56;5.93;;;2.63;;
61989;SDS011;54506;43.930;20.410;2022-09-21T12:52:24;6.13;;;2.92;;
61989;SDS011;54506;43.930;20.410;2022-09-21T12:54:53;5.47;;;2.33;;
61989;SDS011;54506;43.930;20.410;2022-09-21T12:57:35;4.78;;;2.30;;
61989;SDS011;54506;43.930;20.410;2022-09-21T13:00:09;5.18;;;2.40;;
61989;SDS011;54506;43.930;20.410;2022-09-21T13:02:44;4.43;;;2.10;;
61989;SDS011;54506;43.930;20.410;2022-09-21T13:05:13;4.63;;;1.80;;
61989;SDS011;54506;43.930;20.410;2022-09-21T13:12:56;4.35;;;1.80;;
61989;SDS011;54506;43.930;20.410;2022-09-21T13:15:26;4.40;;;1.52;;
61989;SDS011;54506;43.930;20.410;2022-09-21T13:18:34;3.78;;;1.50;;
61989;SDS011;54506;43.930;20.410;2022-09-21T13:20:42;4.40;;;1.45;;
61989;SDS011;54506;43.930;20.410;2022-09-21T13:23:19;4.15;;;1.50;;
61989;SDS011;54506;43.930;20.410;2022-09-21T13:25:46;3.53;;;1.40;;
61989;SDS011;54506;43.930;20.410;2022-09-21T13:30:49;3.53;;;1.23;;
61989;SDS011;54506;43.930;20.410;2022-09-21T13:33:31;3.88;;;1.60;;
61989;SDS011;54506;43.930;20.410;2022-09-21T13:36:02;3.95;;;1.60;;
61989;SDS011;54506;43.930;20.410;2022-09-21T13:38:30;4.85;;;1.70;;
61989;SDS011;54506;43.930;20.410;2022-09-21T13:41:01;4.45;;;1.70;;
61989;SDS011;54506;43.930;20.410;2022-09-21T13:43:43;3.90;;;1.50;;
61989;SDS011;54506;43.930;20.410;2022-09-21T13:46:21;4.10;;;1.35;;
61989;SDS011;54506;43.930;20.410;2022-09-21T13:48:55;3.83;;;1.48;;
61989;SDS011;54506;43.930;20.410;2022-09-21T13:51:21;4.15;;;1.95;;
61989;SDS011;54506;43.930;20.410;2022-09-21T13:53:47;4.10;;;1.67;;
61989;SDS011;54506;43.930;20.410;2022-09-21T13:56:19;4.43;;;1.95;;
61989;SDS011;54506;43.930;20.410;2022-09-21T13:58:46;4.60;;;1.90;;
61989;SDS011;54506;43.930;20.410;2022-09-21T14:03:38;4.30;;;1.83;;
61989;SDS011;54506;43.930;20.410;2022-09-21T14:06:09;4.75;;;2.30;;
61989;SDS011;54506;43.930;20.410;2022-09-21T14:08:44;4.60;;;2.17;;
61989;SDS011;54506;43.930;20.410;2022-09-21T14:14:03;5.35;;;2.40;;
61989;SDS011;54506;43.930;20.410;2022-09-21T14:19:02;7.00;;;3.15;;
61989;SDS011;54506;43.930;20.410;2022-09-21T14:21:28;5.50;;;2.20;;
61989;SDS011;54506;43.930;20.410;2022-09-21T14:24:27;5.00;;;2.53;;
61989;SDS011;54506;43.930;20.410;2022-09-21T14:31:39;5.72;;;2.75;;
61989;SDS011;54506;43.930;20.410;2022-09-21T14:34:05;5.28;;;2.53;;
61989;SDS011;54506;43.930;20.410;2022-09-21T14:36:40;5.55;;;2.60;;
61989;SDS011;54506;43.930;20.410;2022-09-21T14:39:29;6.07;;;2.85;;
61989;SDS011;54506;43.930;20.410;2022-09-21T14:41:53;6.20;;;2.78;;
61989;SDS011;54506;43.930;20.410;2022-09-21T14:44:21;5.68;;;2.53;;
61989;SDS011;54506;43.930;20.410;2022-09-21T14:49:29;5.20;;;2.47;;
61989;SDS011;54506;43.930;20.410;2022-09-21T14:54:46;5.53;;;2.80;;
61989;SDS011;54506;43.930;20.410;2022-09-21T14:57:26;5.72;;;2.75;;
61989;SDS011;54506;43.930;20.410;2022-09-21T15:02:25;5.80;;;2.90;;
61989;SDS011;54506;43.930;20.410;2022-09-21T15:10:21;6.43;;;2.78;;
61989;SDS011;54506;43.930;20.410;2022-09-21T15:13:09;6.72;;;3.13;;
61989;SDS011;54506;43.930;20.410;2022-09-21T15:18:20;6.10;;;2.90;;
61989;SDS011;54506;43.930;20.410;2022-09-21T15:21:14;6.38;;;3.10;;
61989;SDS011;54506;43.930;20.410;2022-09-21T15:23:38;6.95;;;3.00;;
61989;SDS011;54506;43.930;20.410;2022-09-21T15:26:22;6.47;;;2.90;;
61989;SDS011;54506;43.930;20.410;2022-09-21T15:29:02;5.75;;;2.88;;
61989;SDS011;54506;43.930;20.410;2022-09-21T15:31:40;6.90;;;3.20;;
61989;SDS011;54506;43.930;20.410;2022-09-21T15:34:06;6.03;;;2.70;;
61989;SDS011;54506;43.930;20.410;2022-09-21T15:36:33;6.85;;;2.67;;
61989;SDS011;54506;43.930;20.410;2022-09-21T15:38:59;5.70;;;2.80;;
61989;SDS011;54506;43.930;20.410;2022-09-21T15:41:41;5.78;;;2.60;;
61989;SDS011;54506;43.930;20.410;2022-09-21T15:44:14;4.68;;;2.30;;
61989;SDS011;54506;43.930;20.410;2022-09-21T15:46:40;6.57;;;2.60;;
61989;SDS011;54506;43.930;20.410;2022-09-21T15:49:11;5.13;;;2.20;;
61989;SDS011;54506;43.930;20.410;2022-09-21T15:51:37;4.90;;;2.58;;
61989;SDS011;54506;43.930;20.410;2022-09-21T15:54:07;5.88;;;2.72;;
61989;SDS011;54506;43.930;20.410;2022-09-21T15:56:33;8.30;;;2.83;;
61989;SDS011;54506;43.930;20.410;2022-09-21T15:59:04;5.63;;;2.50;;
61989;SDS011;54506;43.930;20.410;2022-09-21T16:01:40;5.72;;;2.90;;
61989;SDS011;54506;43.930;20.410;2022-09-21T16:04:07;7.18;;;2.80;;
61989;SDS011;54506;43.930;20.410;2022-09-21T16:09:25;6.00;;;2.95;;
61989;SDS011;54506;43.930;20.410;2022-09-21T16:11:45;7.00;;;3.50;;
61989;SDS011;54506;43.930;20.410;2022-09-21T16:14:12;6.63;;;3.30;;
61989;SDS011;54506;43.930;20.410;2022-09-21T16:17:03;6.45;;;3.15;;
61989;SDS011;54506;43.930;20.410;2022-09-21T16:19:38;7.22;;;3.50;;
61989;SDS011;54506;43.930;20.410;2022-09-21T16:22:05;6.68;;;3.08;;
61989;SDS011;54506;43.930;20.410;2022-09-21T16:24:30;6.80;;;2.90;;
61989;SDS011;54506;43.930;20.410;2022-09-21T16:26:57;5.40;;;2.83;;
61989;SDS011;54506;43.930;20.410;2022-09-21T16:29:25;5.78;;;3.00;;
61989;SDS011;54506;43.930;20.410;2022-09-21T16:31:50;5.82;;;3.03;;
61989;SDS011;54506;43.930;20.410;2022-09-21T16:34:29;6.80;;;3.40;;
61989;SDS011;54506;43.930;20.410;2022-09-21T16:37:01;6.32;;;3.28;;
61989;SDS011;54506;43.930;20.410;2022-09-21T16:39:26;6.45;;;3.40;;
61989;SDS011;54506;43.930;20.410;2022-09-21T16:41:54;7.25;;;3.25;;
61989;SDS011;54506;43.930;20.410;2022-09-21T16:44:23;6.55;;;3.30;;
61989;SDS011;54506;43.930;20.410;2022-09-21T16:46:53;6.72;;;3.50;;
61989;SDS011;54506;43.930;20.410;2022-09-21T16:49:19;7.72;;;4.07;;
61989;SDS011;54506;43.930;20.410;2022-09-21T16:51:49;7.70;;;3.97;;
61989;SDS011;54506;43.930;20.410;2022-09-21T16:54:15;19.90;;;8.75;;
61989;SDS011;54506;43.930;20.410;2022-09-21T16:56:40;18.15;;;8.98;;
61989;SDS011;54506;43.930;20.410;2022-09-21T16:59:12;17.33;;;8.88;;
61989;SDS011;54506;43.930;20.410;2022-09-21T17:01:40;12.63;;;6.55;;
61989;SDS011;54506;43.930;20.410;2022-09-21T17:04:06;11.13;;;5.45;;
61989;SDS011;54506;43.930;20.410;2022-09-21T17:06:32;8.60;;;4.60;;
61989;SDS011;54506;43.930;20.410;2022-09-21T17:08:59;8.98;;;4.63;;
61989;SDS011;54506;43.930;20.410;2022-09-21T17:11:26;9.13;;;4.68;;
61989;SDS011;54506;43.930;20.410;2022-09-21T17:13:52;8.93;;;4.68;;
61989;SDS011;54506;43.930;20.410;2022-09-21T17:16:23;7.80;;;4.10;;
61989;SDS011;54506;43.930;20.410;2022-09-21T17:18:48;9.35;;;5.18;;
61989;SDS011;54506;43.930;20.410;2022-09-21T17:21:14;13.20;;;7.03;;
61989;SDS011;54506;43.930;20.410;2022-09-21T17:23:40;11.85;;;6.35;;
61989;SDS011;54506;43.930;20.410;2022-09-21T17:26:24;17.88;;;10.25;;
61989;SDS011;54506;43.930;20.410;2022-09-21T17:28:49;19.08;;;11.43;;
61989;SDS011;54506;43.930;20.410;2022-09-21T17:31:16;17.13;;;10.07;;
61989;SDS011;54506;43.930;20.410;2022-09-21T17:33:42;15.65;;;8.13;;
61989;SDS011;54506;43.930;20.410;2022-09-21T17:36:14;11.73;;;6.72;;
61989;SDS011;54506;43.930;20.410;2022-09-21T17:38:41;10.93;;;5.75;;